Dover, TN (37058)

5:27 PM CST on December 02, 2016 (GMT -0600)
| | Change Station

Elev -9999 ft 0.00 °N, 0.00 °E | Updated

Partly Cloudy
Partly Cloudy
44 °F
Feels Like 44 °F
N
2
Wind Variable Wind from North
Gusts mph

Today
High -- | Low -- °F
--% Chance of Precip.
Yesterday
High -- | Low -- °F
Precip. -- in
Pressure 30.30 in
Visibility 10.0 miles
Clouds Clear
Dew Point 30 °F
Humidity 58%
Rainfall --
Snow Depth Not available.
6:46 AM 4:35 PM
Waxing Crescent, 11% visible
METAR KHOP 022258Z AUTO 35003KT 10SM CLR 09/M01 A3028 RMK AO2 SLP259 T00851013
Pressure 30.30 in
Visibility 10.0 miles
Clouds Clear
Dew Point 30 °F
Humidity 58%
Rainfall --
Snow Depth Not available.
6:46 AM 4:35 PM
Waxing Crescent, 11% visible
METAR KHOP 022258Z AUTO 35003KT 10SM CLR 09/M01 A3028 RMK AO2 SLP259 T00851013

10-Day Weather Forecast

Almanac

Astronomy

Dec. 02, 2016 Rise Set
Actual Time
Civil Twilight
Nautical Twilight
Astronomical Twilight
Moon
Length of Visible Light
Length of Day
Tomorrow will be .
, % of the Moon is Illuminated

Today's Extremes

State Highs State Lows

Community

WunderPhotos

Upload Photos

1,955,378 photos uploaded!

WunderBlog® & News

Nearby

Air Quality

  Air Quality AQ Index Pollutant
Not available.

Snow Depth

Station Depth Elevation

Earthquake Activity

City Distance Mag. Time & Date
Minimum magnitude displayed is 2.5.

Coastal Water Temperatures

Place Temperature

Stations

Nearby Weather Stations

Station Location Temp. Windchill Dew Point Humidity Wind Precip. Elev Updated Type
                   

Watches & Warnings

There are currently no watches in effect.